Time;durP1;ratioP1;P1;durP2;ratioP2;P2;SDS_P1;SDS_P2;PMS_P1;PMS_P2;Temp;Humidity;BMP_temperature;BMP_pressure;BME280_temperature;BME280_humidity;BME280_pressure;Samples;Min_cycle;Max_cycle;Signal;HPM_P1;HPM_P2
2021/01/29 00:01:18;;;;;;;46.27;15.07;;;2.50;99.90;;;;;;4843015;29;20205;-69
2021/01/29 00:03:44;;;;;;;34.17;14.37;;;2.50;99.90;;;;;;4843220;29;20217;-69
2021/01/29 00:06:12;;;;;;;31.83;12.83;;;2.50;99.90;;;;;;4888783;29;20211;-69
2021/01/29 00:08:38;;;;;;;32.40;13.50;;;2.50;99.90;;;;;;4898870;29;20298;-69
2021/01/29 00:11:06;;;;;;;29.17;12.60;;;2.50;99.90;;;;;;4933131;29;20677;-69
2021/01/29 00:13:33;;;;;;;29.13;12.50;;;2.50;99.90;;;;;;4937378;29;20210;-69
2021/01/29 00:16:00;;;;;;;29.60;12.53;;;2.50;99.90;;;;;;4921310;29;20233;-69
2021/01/29 00:18:27;;;;;;;29.17;12.07;;;2.50;99.90;;;;;;4937108;29;20230;-69
2021/01/29 00:20:54;;;;;;;35.83;14.20;;;2.50;99.90;;;;;;4901577;29;20700;-69
2021/01/29 00:23:21;;;;;;;33.20;12.97;;;2.50;99.90;;;;;;4898546;29;20211;-69
2021/01/29 00:25:51;;;;;;;34.83;13.40;;;2.50;99.90;;;;;;4917668;29;20213;-69
2021/01/29 00:28:18;;;;;;;30.60;13.53;;;2.50;99.90;;;;;;4933707;29;20603;-69
2021/01/29 00:30:46;;;;;;;32.00;14.17;;;2.50;99.90;;;;;;4925793;29;20324;-69
2021/01/29 00:33:14;;;;;;;32.73;13.77;;;2.50;99.90;;;;;;4971205;28;20279;-69
2021/01/29 00:35:42;;;;;;;33.50;14.13;;;2.40;99.90;;;;;;4974646;28;20251;-69
2021/01/29 00:38:09;;;;;;;29.57;13.70;;;2.40;99.90;;;;;;4974530;28;20571;-69
2021/01/29 00:40:36;;;;;;;32.30;12.90;;;2.40;99.90;;;;;;4974434;28;20531;-69
2021/01/29 00:43:04;;;;;;;30.47;12.53;;;2.40;99.90;;;;;;4991988;28;20255;-69
2021/01/29 00:45:33;;;;;;;34.90;14.13;;;2.50;99.90;;;;;;4993905;28;20204;-69
2021/01/29 00:47:59;;;;;;;30.07;13.47;;;2.40;99.90;;;;;;4994078;28;20211;-69
2021/01/29 00:50:26;;;;;;;33.13;12.47;;;2.40;99.90;;;;;;5013034;28;20705;-69
2021/01/29 00:52:54;;;;;;;34.50;14.13;;;2.40;99.90;;;;;;4964314;28;20594;-69
2021/01/29 00:55:23;;;;;;;36.13;14.00;;;2.40;99.90;;;;;;4974107;28;20651;-69
2021/01/29 00:57:55;;;;;;;30.73;12.70;;;2.40;99.90;;;;;;4954847;29;20349;-69
2021/01/29 01:00:57;;;;;;;29.93;12.73;;;2.30;99.90;;;;;;4957811;28;20218;-69
2021/01/29 01:03:29;;;;;;;33.30;13.50;;;2.40;99.90;;;;;;4974909;28;20208;-69
2021/01/29 01:05:57;;;;;;;31.40;13.83;;;2.30;99.90;;;;;;4974354;28;20329;-69
2021/01/29 01:08:47;;;;;;;31.17;13.77;;;2.30;99.90;;;;;;4974258;28;20551;-69
2021/01/29 01:11:25;;;;;;;35.77;14.57;;;2.30;99.90;;;;;;4954616;29;20241;-69
2021/01/29 01:14:12;;;;;;;28.27;12.27;;;2.30;99.90;;;;;;4935394;29;20412;-69
2021/01/29 01:16:41;;;;;;;28.53;12.87;;;2.30;99.90;;;;;;4966567;28;20228;-69
2021/01/29 01:19:21;;;;;;;26.33;11.90;;;2.30;99.90;;;;;;4977240;28;20724;-69
2021/01/29 01:21:57;;;;;;;26.07;11.97;;;2.20;99.90;;;;;;4963671;28;20200;-69
2021/01/29 01:24:42;;;;;;;31.13;13.50;;;2.20;99.90;;;;;;4993219;28;20213;-69
2021/01/29 01:27:12;;;;;;;30.10;12.77;;;2.20;99.90;;;;;;4993385;28;20204;-69
2021/01/29 01:30:15;;;;;;;26.80;11.67;;;2.10;99.90;;;;;;4942760;29;20209;-69
2021/01/29 01:32:43;;;;;;;23.47;10.73;;;2.10;99.90;;;;;;4954851;29;20249;-69
2021/01/29 01:35:29;;;;;;;21.60;10.00;;;2.10;99.90;;;;;;4954715;29;20278;-70
2021/01/29 01:37:56;;;;;;;24.40;10.97;;;2.10;99.90;;;;;;4954240;29;20275;-69
2021/01/29 01:40:41;;;;;;;22.60;10.57;;;2.00;99.90;;;;;;4954635;29;20679;-69
2021/01/29 01:43:12;;;;;;;23.27;10.00;;;2.10;99.90;;;;;;4915649;29;20210;-69
2021/01/29 01:46:00;;;;;;;19.50;10.20;;;2.00;99.90;;;;;;4943046;29;20245;-69
2021/01/29 01:48:41;;;;;;;21.20;10.00;;;1.90;99.90;;;;;;4954676;29;20635;-69
2021/01/29 01:51:37;;;;;;;29.37;11.60;;;1.90;99.90;;;;;;4955208;29;20212;-69
2021/01/29 01:54:09;;;;;;;22.00;10.00;;;1.90;99.90;;;;;;4954452;29;20623;-69
2021/01/29 01:56:43;;;;;;;23.53;10.33;;;1.90;99.90;;;;;;4937659;29;20206;-69
2021/01/29 01:59:43;;;;;;;21.37;9.33;;;1.90;99.90;;;;;;4934189;29;20229;-69
2021/01/29 02:02:45;;;;;;;21.77;10.03;;;1.90;99.90;;;;;;4934633;29;20209;-69
2021/01/29 02:05:50;;;;;;;22.50;10.33;;;1.90;99.90;;;;;;4915605;29;20210;-69
2021/01/29 02:08:20;;;;;;;23.87;10.57;;;1.90;99.90;;;;;;4911622;29;20211;-69
2021/01/29 02:10:50;;;;;;;21.37;10.63;;;1.90;99.90;;;;;;4896662;29;20211;-69
2021/01/29 02:13:25;;;;;;;21.13;10.07;;;1.80;99.90;;;;;;4887248;29;20197;-68
2021/01/29 02:16:17;;;;;;;23.37;11.30;;;1.80;99.90;;;;;;4934031;29;20280;-68
2021/01/29 02:19:15;;;;;;;24.53;12.13;;;1.70;99.90;;;;;;4950463;29;20576;-68
2021/01/29 02:22:27;;;;;;;23.40;11.27;;;1.70;99.90;;;;;;4934850;29;20292;-68
2021/01/29 02:25:48;;;;;;;21.90;10.70;;;1.70;99.90;;;;;;4934443;29;20182;-68
2021/01/29 02:28:51;;;;;;;22.17;10.90;;;1.60;99.90;;;;;;4938027;29;20296;-68
2021/01/29 02:31:53;;;;;;;24.20;11.20;;;1.60;99.90;;;;;;4934145;29;20676;-68
2021/01/29 02:35:03;;;;;;;22.10;10.50;;;1.50;99.90;;;;;;4953224;29;20640;-68
2021/01/29 02:38:22;;;;;;;16.93;9.13;;;1.50;99.90;;;;;;5026302;28;20193;-68
2021/01/29 02:41:03;;;;;;;24.90;10.80;;;1.50;99.90;;;;;;5031122;28;20787;-68
2021/01/29 02:43:47;;;;;;;23.80;10.60;;;1.50;99.90;;;;;;4994075;28;20246;-68
2021/01/29 02:46:50;;;;;;;24.77;10.63;;;1.50;99.90;;;;;;5011955;28;20214;-68
2021/01/29 02:50:00;;;;;;;20.17;9.53;;;1.50;99.90;;;;;;4992257;28;20208;-69
2021/01/29 02:53:00;;;;;;;19.53;9.43;;;1.50;99.90;;;;;;4991538;28;20203;-68
2021/01/29 02:56:15;;;;;;;18.90;8.70;;;1.50;99.90;;;;;;4935806;29;20551;-68
2021/01/29 02:59:09;;;;;;;20.50;9.27;;;1.50;99.90;;;;;;4893856;29;20579;-68
2021/01/29 03:02:00;;;;;;;21.70;10.10;;;1.50;99.90;;;;;;4877179;29;20216;-68
2021/01/29 03:04:51;;;;;;;20.17;9.27;;;1.40;99.90;;;;;;4862060;29;20215;-68
2021/01/29 03:07:24;;;;;;;16.00;8.03;;;1.40;99.90;;;;;;4860242;29;20298;-68
2021/01/29 03:27:11;;;;;;;14.33;7.10;;;1.30;99.90;;;;;;5111842;27;20624;-70
2021/01/29 03:30:00;;;;;;;11.87;6.37;;;1.20;99.90;;;;;;5111861;28;20633;-70
2021/01/29 03:32:49;;;;;;;10.07;5.40;;;1.20;99.90;;;;;;5111442;28;20179;-70
2021/01/29 03:35:38;;;;;;;10.67;5.37;;;1.10;99.90;;;;;;5111739;28;20260;-70
2021/01/29 03:38:28;;;;;;;8.30;4.87;;;1.10;99.90;;;;;;5111583;28;20207;-69
2021/01/29 03:41:22;;;;;;;7.87;4.63;;;1.10;99.90;;;;;;5110971;28;20211;-70
2021/01/29 03:44:17;;;;;;;8.13;4.77;;;1.10;99.90;;;;;;5111672;28;20191;-70
2021/01/29 03:47:12;;;;;;;5.93;3.90;;;1.00;99.90;;;;;;5068324;28;20197;-69
2021/01/29 03:50:08;;;;;;;4.70;3.20;;;0.90;99.90;;;;;;5068671;28;20694;-70
2021/01/29 03:53:06;;;;;;;4.43;2.87;;;0.90;99.90;;;;;;5068335;28;20208;-69
2021/01/29 03:56:02;;;;;;;4.57;3.03;;;0.80;99.90;;;;;;5068051;28;20184;-69
2021/01/29 03:58:57;;;;;;;4.87;2.67;;;0.70;99.90;;;;;;5068469;28;20612;-70
2021/01/29 04:02:03;;;;;;;4.23;3.03;;;0.50;99.90;;;;;;5008500;28;20203;-69
2021/01/29 04:04:57;;;;;;;5.83;3.10;;;0.50;99.90;;;;;;5009084;28;20326;-70
2021/01/29 04:07:50;;;;;;;5.43;3.53;;;0.40;99.90;;;;;;5008454;28;20255;-70
2021/01/29 04:10:35;;;;;;;3.97;2.60;;;0.30;99.90;;;;;;5008406;28;20298;-70
2021/01/29 04:13:35;;;;;;;2.93;2.50;;;0.40;99.90;;;;;;4969123;28;20211;-70
2021/01/29 04:16:10;;;;;;;3.77;2.23;;;0.30;99.90;;;;;;4950100;29;20237;-70
2021/01/29 04:18:45;;;;;;;2.97;2.10;;;0.20;99.90;;;;;;4949826;29;20237;-70
2021/01/29 04:21:17;;;;;;;2.57;1.90;;;0.20;99.90;;;;;;4949712;29;20603;-70
2021/01/29 04:23:51;;;;;;;4.03;2.13;;;0.20;99.90;;;;;;4956078;28;20219;-70
2021/01/29 04:26:20;;;;;;;2.40;1.90;;;0.20;99.90;;;;;;4988008;28;20239;-70
2021/01/29 04:28:52;;;;;;;3.33;1.70;;;0.10;99.90;;;;;;4988902;28;20208;-70
2021/01/29 04:31:20;;;;;;;2.70;1.80;;;0.10;99.90;;;;;;4969234;28;20204;-70
2021/01/29 04:33:52;;;;;;;3.53;2.00;;;0.10;99.90;;;;;;4969137;28;20209;-70
2021/01/29 04:36:22;;;;;;;3.70;2.07;;;0.00;99.90;;;;;;4910177;29;20613;-70
2021/01/29 04:38:55;;;;;;;4.47;2.40;;;0.00;99.90;;;;;;4912572;29;20545;-70
2021/01/29 04:41:34;;;;;;;5.30;2.40;;;-0.10;99.90;;;;;;4918126;29;20207;-70
2021/01/29 04:44:25;;;;;;;4.77;2.57;;;-0.20;99.90;;;;;;4917798;29;20238;-70
2021/01/29 04:47:19;;;;;;;3.47;2.70;;;-0.30;99.90;;;;;;4916958;29;20238;-70
2021/01/29 04:50:21;;;;;;;3.73;2.27;;;-0.30;99.90;;;;;;4876838;29;20219;-70
2021/01/29 04:53:24;;;;;;;2.40;1.90;;;-0.30;99.90;;;;;;4924272;29;20208;-69
2021/01/29 04:56:30;;;;;;;2.87;2.17;;;-0.30;99.90;;;;;;4861252;29;20211;-69
2021/01/29 04:59:19;;;;;;;4.73;2.33;;;-0.20;99.90;;;;;;4879836;29;20207;-69
2021/01/29 05:02:49;;;;;;;3.03;1.80;;;-0.20;99.90;;;;;;4879282;29;20204;-69
2021/01/29 05:06:07;;;;;;;3.17;1.80;;;-0.20;99.90;;;;;;4860997;29;20296;-69
2021/01/29 05:09:14;;;;;;;2.07;1.77;;;-0.20;99.90;;;;;;4879895;29;20208;-69
2021/01/29 05:12:49;;;;;;;3.80;2.30;;;-0.20;99.90;;;;;;4914365;29;20222;-69
2021/01/29 05:15:36;;;;;;;3.13;2.03;;;-0.20;99.90;;;;;;4898090;29;20206;-69
2021/01/29 05:18:27;;;;;;;5.03;2.03;;;-0.30;99.90;;;;;;4898113;29;20207;-69
2021/01/29 05:21:31;;;;;;;3.53;1.70;;;-0.40;99.90;;;;;;4879446;29;20643;-69
2021/01/29 05:24:11;;;;;;;3.93;2.30;;;-0.50;99.90;;;;;;4879330;29;20211;-69
2021/01/29 05:26:59;;;;;;;3.40;2.30;;;-0.70;99.90;;;;;;4842141;29;20237;-69
2021/01/29 05:29:37;;;;;;;4.83;2.00;;;-0.80;99.90;;;;;;4842315;29;20325;-69
2021/01/29 05:32:31;;;;;;;2.47;2.20;;;-1.00;99.90;;;;;;4826166;29;20213;-69
2021/01/29 05:35:22;;;;;;;7.83;2.90;;;-1.10;99.90;;;;;;4878924;29;20555;-69
2021/01/29 05:38:09;;;;;;;3.67;2.50;;;-1.10;99.90;;;;;;4879529;29;20212;-69
2021/01/29 05:40:53;;;;;;;4.97;2.77;;;-1.20;99.90;;;;;;4879327;29;20207;-69
2021/01/29 05:43:59;;;;;;;3.43;2.60;;;-1.30;99.90;;;;;;4896562;29;20218;-69
2021/01/29 05:46:29;;;;;;;4.17;2.70;;;-1.30;99.90;;;;;;4937474;29;20233;-69
2021/01/29 05:49:23;;;;;;;7.37;2.80;;;-1.20;99.90;;;;;;4954096;28;20185;-68
2021/01/29 05:52:09;;;;;;;4.90;3.10;;;-1.20;99.90;;;;;;4952023;29;20256;-69
2021/01/29 05:55:02;;;;;;;6.30;3.03;;;-1.10;99.90;;;;;;4897588;29;20199;-68
2021/01/29 05:58:02;;;;;;;4.80;3.60;;;-1.00;99.90;;;;;;4875950;29;20357;-69
2021/01/29 06:00:52;;;;;;;9.10;4.17;;;-0.90;99.90;;;;;;4898321;29;20200;-69
2021/01/29 06:03:45;;;;;;;6.00;3.90;;;-0.80;99.90;;;;;;4898627;29;20249;-69
2021/01/29 06:06:45;;;;;;;9.50;3.80;;;-0.70;99.90;;;;;;4916669;29;20230;-69
2021/01/29 06:09:28;;;;;;;8.23;3.87;;;-0.70;99.90;;;;;;4879150;29;20219;-69
2021/01/29 06:12:06;;;;;;;12.03;4.53;;;-0.70;99.90;;;;;;4879001;29;20208;-69
2021/01/29 06:15:11;;;;;;;11.30;4.87;;;-0.60;99.90;;;;;;4878921;29;20207;-69
2021/01/29 06:18:16;;;;;;;11.80;4.53;;;-0.60;99.90;;;;;;4878817;29;20216;-68
2021/01/29 06:21:16;;;;;;;12.53;4.23;;;-0.60;99.90;;;;;;4878527;29;20218;-69
2021/01/29 06:24:31;;;;;;;8.67;3.97;;;-0.60;99.90;;;;;;4878833;29;20212;-69
2021/01/29 06:27:30;;;;;;;7.07;3.83;;;-0.50;99.90;;;;;;4804814;29;20242;-69
2021/01/29 06:30:24;;;;;;;9.60;4.53;;;-0.50;99.90;;;;;;4887947;29;20198;-69
2021/01/29 06:33:33;;;;;;;10.20;4.73;;;-0.50;99.90;;;;;;4932106;29;20226;-69
2021/01/29 06:36:12;;;;;;;13.63;5.53;;;-0.50;99.90;;;;;;4911072;29;20236;-69
2021/01/29 06:38:54;;;;;;;13.10;5.37;;;-0.40;99.90;;;;;;4916238;29;20559;-68
2021/01/29 06:42:01;;;;;;;14.33;6.43;;;-0.40;99.90;;;;;;4897410;29;20211;-69
2021/01/29 06:44:53;;;;;;;11.27;5.73;;;-0.30;99.90;;;;;;4878357;29;20204;-69
2021/01/29 06:47:34;;;;;;;17.57;5.60;;;-0.30;99.90;;;;;;4897246;29;20223;-69
2021/01/29 06:50:21;;;;;;;11.37;5.93;;;-0.30;99.90;;;;;;4897268;29;20211;-70
2021/01/29 06:53:12;;;;;;;10.60;5.23;;;-0.20;99.90;;;;;;4897092;29;20194;-68
2021/01/29 06:56:06;;;;;;;10.23;5.40;;;-0.20;99.90;;;;;;4896684;29;20207;-68
2021/01/29 06:59:00;;;;;;;6.83;4.57;;;-0.10;99.90;;;;;;4896422;29;20235;-68
2021/01/29 07:02:01;;;;;;;8.57;5.20;;;-0.10;99.90;;;;;;4940886;29;20827;-68
2021/01/29 07:05:02;;;;;;;11.47;5.27;;;0.00;99.90;;;;;;4934808;29;20223;-68
2021/01/29 07:08:03;;;;;;;7.80;4.27;;;0.00;99.90;;;;;;4950922;28;20235;-68
2021/01/29 07:10:49;;;;;;;8.43;4.83;;;0.10;99.90;;;;;;4973134;28;20207;-68
2021/01/29 07:13:31;;;;;;;9.87;4.80;;;0.10;99.90;;;;;;4989471;28;20208;-68
2021/01/29 07:16:26;;;;;;;11.13;5.67;;;0.20;99.90;;;;;;5019202;28;20652;-68
2021/01/29 07:19:21;;;;;;;7.70;4.70;;;0.30;99.90;;;;;;5060480;28;20296;-68
2021/01/29 07:22:38;;;;;;;8.03;4.87;;;0.30;99.90;;;;;;5071001;28;20185;-68
2021/01/29 07:25:11;;;;;;;10.33;5.20;;;0.40;99.90;;;;;;5011593;28;20226;-68
2021/01/29 07:27:46;;;;;;;11.40;5.57;;;0.40;99.90;;;;;;5012272;28;20214;-68
2021/01/29 07:30:42;;;;;;;14.37;6.30;;;0.50;99.90;;;;;;5011603;28;20308;-68
2021/01/29 07:33:22;;;;;;;14.07;6.70;;;0.50;99.90;;;;;;5011429;28;20273;-68
2021/01/29 07:36:08;;;;;;;14.03;7.00;;;0.60;99.90;;;;;;4985166;28;20697;-68
2021/01/29 07:38:58;;;;;;;12.37;6.40;;;0.60;99.90;;;;;;4991977;28;20254;-68
2021/01/29 07:41:39;;;;;;;10.03;6.03;;;0.70;99.90;;;;;;4953240;29;20220;-68
2021/01/29 07:44:42;;;;;;;11.03;5.57;;;0.90;99.90;;;;;;4953195;29;20193;-68
2021/01/29 07:47:16;;;;;;;14.50;6.50;;;1.00;99.90;;;;;;4859174;29;20240;-68
2021/01/29 07:50:09;;;;;;;13.67;6.37;;;1.10;99.90;;;;;;4858750;29;20586;-68
2021/01/29 07:52:51;;;;;;;10.23;5.70;;;1.30;99.90;;;;;;4822216;29;20213;-69
2021/01/29 07:55:23;;;;;;;11.83;6.27;;;1.50;99.90;;;;;;4822859;29;20205;-68
2021/01/29 07:58:29;;;;;;;14.50;6.40;;;1.60;99.90;;;;;;4819302;29;20325;-68
2021/01/29 08:01:26;;;;;;;14.30;6.53;;;1.80;99.90;;;;;;4818467;29;20228;-68
2021/01/29 08:04:01;;;;;;;12.33;6.80;;;1.80;99.90;;;;;;4858750;29;20213;-68
2021/01/29 08:06:31;;;;;;;18.57;7.50;;;1.90;99.90;;;;;;4877926;29;20225;-68
2021/01/29 08:09:02;;;;;;;16.97;7.17;;;1.90;99.90;;;;;;4895738;29;20203;-68
2021/01/29 08:11:31;;;;;;;14.97;7.00;;;1.80;99.90;;;;;;4900467;29;20231;-68
2021/01/29 08:14:24;;;;;;;13.07;6.67;;;1.70;99.90;;;;;;4937391;29;20206;-68
2021/01/29 08:17:15;;;;;;;13.60;6.77;;;1.60;99.90;;;;;;4937606;29;20233;-68
2021/01/29 08:19:52;;;;;;;15.20;6.03;;;1.50;99.90;;;;;;4937120;29;20182;-68
2021/01/29 08:22:57;;;;;;;15.60;7.10;;;1.40;99.90;;;;;;4957420;28;20258;-68
2021/01/29 08:25:55;;;;;;;12.83;6.33;;;1.30;99.90;;;;;;4975404;28;20246;-68
2021/01/29 08:29:10;;;;;;;17.63;7.13;;;1.40;99.90;;;;;;4975929;28;20215;-68
2021/01/29 08:32:04;;;;;;;15.13;7.00;;;1.30;99.90;;;;;;4975110;28;20573;-68
2021/01/29 08:35:39;;;;;;;17.50;7.10;;;1.30;99.90;;;;;;4955935;29;20209;-68
2021/01/29 08:38:10;;;;;;;16.77;7.43;;;1.20;99.90;;;;;;4941807;29;20209;-68
2021/01/29 08:40:45;;;;;;;16.13;7.13;;;1.10;99.90;;;;;;4966172;28;20212;-68
2021/01/29 08:43:41;;;;;;;13.17;5.87;;;1.10;99.90;;;;;;4975579;28;20235;-68
2021/01/29 08:46:21;;;;;;;13.07;6.07;;;1.10;99.90;;;;;;4975242;28;20680;-68
2021/01/29 08:49:17;;;;;;;14.00;6.00;;;1.10;99.90;;;;;;4994794;28;20737;-68
2021/01/29 08:51:47;;;;;;;11.00;5.80;;;1.20;99.90;;;;;;4994531;28;20623;-68
2021/01/29 08:54:37;;;;;;;17.17;6.43;;;1.20;99.90;;;;;;4974930;28;20204;-68
2021/01/29 08:57:18;;;;;;;18.07;7.53;;;1.20;99.90;;;;;;4975126;28;20255;-68
2021/01/29 08:59:45;;;;;;;21.10;8.10;;;1.20;99.90;;;;;;4975013;28;20208;-68
2021/01/29 09:02:34;;;;;;;22.57;8.50;;;1.20;99.90;;;;;;4979561;28;20265;-68
2021/01/29 09:05:05;;;;;;;14.27;6.67;;;1.20;99.90;;;;;;4990150;28;20212;-68
2021/01/29 09:07:34;;;;;;;17.47;7.07;;;1.20;99.90;;;;;;4994655;28;20238;-69
2021/01/29 09:10:18;;;;;;;20.83;8.10;;;1.20;99.90;;;;;;5029092;28;20203;-68
2021/01/29 09:12:46;;;;;;;22.13;7.57;;;1.30;99.90;;;;;;5053979;28;20209;-69
2021/01/29 09:15:22;;;;;;;18.93;7.67;;;1.30;99.90;;;;;;5054048;28;20233;-69
2021/01/29 09:17:56;;;;;;;17.30;7.43;;;1.30;99.90;;;;;;5004366;28;20636;-68
2021/01/29 09:20:27;;;;;;;19.13;7.87;;;1.30;99.90;;;;;;5068387;28;20706;-68
2021/01/29 09:23:03;;;;;;;17.87;7.50;;;1.40;99.90;;;;;;5074007;28;20200;-70
2021/01/29 09:25:41;;;;;;;15.90;6.97;;;1.40;99.90;;;;;;5085744;28;20234;-68
2021/01/29 09:28:13;;;;;;;15.57;7.27;;;1.50;99.90;;;;;;5094252;28;20208;-68
2021/01/29 09:30:48;;;;;;;17.10;7.10;;;1.40;99.90;;;;;;5073293;28;20197;-68
2021/01/29 09:33:22;;;;;;;18.90;6.70;;;1.50;99.90;;;;;;5073472;28;20254;-69
2021/01/29 09:35:59;;;;;;;16.67;6.60;;;1.50;99.90;;;;;;5053120;28;20230;-68
2021/01/29 09:38:29;;;;;;;25.33;9.27;;;1.50;99.90;;;;;;5062543;28;20255;-70
2021/01/29 09:41:14;;;;;;;18.20;7.27;;;1.50;99.90;;;;;;5073857;28;20201;-69
2021/01/29 09:43:54;;;;;;;23.10;9.63;;;1.50;99.90;;;;;;5064298;28;20286;-69
2021/01/29 09:46:25;;;;;;;25.20;10.07;;;1.50;99.90;;;;;;5053174;28;20784;-69
2021/01/29 09:49:02;;;;;;;25.37;10.13;;;1.40;99.90;;;;;;5053084;28;20324;-69
2021/01/29 09:51:43;;;;;;;21.30;8.97;;;1.40;99.90;;;;;;5053428;28;20210;-69
2021/01/29 09:54:17;;;;;;;22.83;8.87;;;1.30;99.90;;;;;;5052760;28;20184;-68
2021/01/29 09:56:51;;;;;;;20.53;7.90;;;1.40;99.90;;;;;;5053585;28;20306;-68
2021/01/29 09:59:44;;;;;;;20.67;8.47;;;1.30;99.90;;;;;;5052722;28;20182;-70
2021/01/29 10:02:20;;;;;;;16.63;7.33;;;1.30;99.90;;;;;;5053470;28;20193;-70
2021/01/29 10:05:10;;;;;;;19.83;8.17;;;1.40;99.90;;;;;;5053230;28;20178;-69
2021/01/29 10:07:41;;;;;;;23.80;9.00;;;1.40;99.90;;;;;;5076400;28;20224;-68
2021/01/29 10:10:12;;;;;;;21.90;9.43;;;1.50;99.90;;;;;;5093388;28;20738;-69
2021/01/29 10:12:43;;;;;;;17.13;7.83;;;1.60;99.90;;;;;;5023712;28;20200;-69
2021/01/29 10:15:19;;;;;;;18.90;7.33;;;1.80;99.90;;;;;;5052492;28;20528;-69
2021/01/29 10:17:57;;;;;;;19.50;8.17;;;2.00;99.90;;;;;;5052625;28;20205;-69
2021/01/29 10:20:27;;;;;;;17.67;7.80;;;2.10;99.90;;;;;;5032671;28;20202;-69
2021/01/29 10:23:16;;;;;;;16.47;7.23;;;2.20;99.90;;;;;;5033046;28;20219;-69
2021/01/29 10:25:54;;;;;;;16.30;6.93;;;2.30;99.90;;;;;;5032298;28;20257;-69
2021/01/29 10:28:36;;;;;;;14.83;7.10;;;2.30;99.90;;;;;;5032311;28;20197;-70
2021/01/29 10:31:06;;;;;;;15.53;6.93;;;2.30;99.90;;;;;;5032574;28;20660;-69
2021/01/29 10:33:35;;;;;;;14.33;7.23;;;2.30;99.90;;;;;;5031984;28;20237;-69
2021/01/29 10:36:04;;;;;;;20.43;9.13;;;2.40;99.90;;;;;;5011803;28;20265;-69
2021/01/29 10:38:40;;;;;;;16.13;7.97;;;2.40;99.90;;;;;;5012748;28;20692;-69
2021/01/29 10:41:14;;;;;;;15.67;7.93;;;2.50;99.90;;;;;;5012655;28;20293;-69
2021/01/29 10:43:47;;;;;;;24.87;11.17;;;2.60;99.90;;;;;;4973721;28;20208;-69
2021/01/29 10:46:42;;;;;;;20.80;9.50;;;2.80;99.90;;;;;;4953656;29;20345;-69
2021/01/29 10:49:19;;;;;;;19.83;9.10;;;2.90;99.90;;;;;;4956236;28;20636;-69
2021/01/29 10:51:57;;;;;;;18.67;8.27;;;3.00;99.90;;;;;;4985641;28;20215;-69
2021/01/29 10:54:32;;;;;;;19.17;8.40;;;3.20;99.90;;;;;;4992661;28;20204;-69
2021/01/29 10:57:06;;;;;;;21.70;9.77;;;3.40;99.90;;;;;;4992557;28;20650;-69
2021/01/29 10:59:41;;;;;;;26.23;9.93;;;3.60;99.90;;;;;;4992754;28;20207;-69
2021/01/29 11:02:13;;;;;;;26.23;10.27;;;3.70;99.90;;;;;;4945167;28;20574;-69
2021/01/29 11:04:44;;;;;;;23.20;10.07;;;3.70;99.90;;;;;;4992570;28;20207;-69
2021/01/29 11:07:21;;;;;;;22.83;9.17;;;3.80;99.90;;;;;;5002864;28;20230;-69
2021/01/29 11:09:56;;;;;;;22.47;9.63;;;3.90;99.90;;;;;;5012374;28;20241;-69
2021/01/29 11:12:28;;;;;;;25.73;10.13;;;4.00;99.90;;;;;;5012011;28;20202;-69
2021/01/29 11:14:58;;;;;;;33.40;13.93;;;4.10;99.90;;;;;;4972845;28;20196;-69
2021/01/29 11:17:32;;;;;;;32.47;13.70;;;4.20;99.90;;;;;;4972520;28;20215;-69
2021/01/29 11:20:03;;;;;;;35.03;14.20;;;4.20;99.90;;;;;;4972807;28;20745;-69
2021/01/29 11:22:39;;;;;;;36.13;13.40;;;4.30;99.90;;;;;;4944268;28;20203;-69
2021/01/29 11:25:46;;;;;;;29.20;12.30;;;4.30;99.90;;;;;;4992088;28;20238;-69
2021/01/29 11:28:39;;;;;;;30.13;12.47;;;4.30;99.90;;;;;;4893272;29;20597;-69
2021/01/29 11:31:12;;;;;;;24.47;10.60;;;4.40;99.90;;;;;;4878028;29;20590;-68
2021/01/29 11:33:44;;;;;;;36.53;13.33;;;4.40;99.90;;;;;;4903693;29;20214;-68
2021/01/29 11:36:21;;;;;;;38.70;15.23;;;4.40;99.90;;;;;;4915919;29;20198;-68
2021/01/29 11:38:53;;;;;;;34.73;13.50;;;4.30;99.90;;;;;;4996988;28;20233;-68
2021/01/29 11:41:28;;;;;;;28.93;11.83;;;4.20;99.90;;;;;;5012272;28;20219;-69
2021/01/29 11:44:06;;;;;;;26.67;12.07;;;4.20;99.90;;;;;;5012087;28;20555;-69
2021/01/29 11:46:37;;;;;;;28.47;11.57;;;4.10;99.90;;;;;;5021079;28;20534;-68
2021/01/29 11:49:12;;;;;;;27.77;11.07;;;4.00;99.90;;;;;;5035661;28;20286;-69
2021/01/29 11:51:42;;;;;;;23.73;9.67;;;4.00;99.90;;;;;;5035110;28;20210;-68
2021/01/29 11:54:16;;;;;;;19.40;9.13;;;4.00;99.90;;;;;;4995990;28;20696;-69
2021/01/29 11:56:55;;;;;;;20.13;8.70;;;4.00;99.90;;;;;;4937801;29;20525;-68
2021/01/29 11:59:32;;;;;;;22.87;8.10;;;4.10;99.90;;;;;;4961788;28;20211;-69
2021/01/29 12:02:06;;;;;;;16.67;7.23;;;4.20;99.90;;;;;;4976705;28;20619;-68
2021/01/29 12:04:41;;;;;;;15.50;7.20;;;4.20;99.90;;;;;;4976113;28;20662;-68
2021/01/29 12:07:14;;;;;;;16.87;8.00;;;4.20;99.90;;;;;;4976011;28;20223;-68
2021/01/29 12:09:50;;;;;;;20.67;8.23;;;4.30;99.90;;;;;;4975935;28;20240;-68
2021/01/29 12:12:24;;;;;;;15.50;7.00;;;4.30;99.90;;;;;;4976585;28;20218;-68
2021/01/29 12:15:02;;;;;;;16.50;7.87;;;4.40;99.90;;;;;;4937167;29;20209;-68
2021/01/29 12:17:31;;;;;;;18.63;8.00;;;4.40;99.90;;;;;;4946368;29;20667;-69
2021/01/29 12:20:02;;;;;;;22.70;10.07;;;4.40;99.90;;;;;;4956433;29;20714;-69
2021/01/29 12:22:33;;;;;;;23.93;10.13;;;4.40;99.90;;;;;;4956498;29;20559;-69
2021/01/29 12:25:40;;;;;;;22.17;10.07;;;4.30;99.90;;;;;;4973417;28;20224;-69
2021/01/29 12:28:19;;;;;;;22.57;10.47;;;4.40;99.90;;;;;;4995507;28;20208;-68
2021/01/29 12:30:58;;;;;;;23.53;10.40;;;4.40;99.90;;;;;;4995134;28;20200;-68
2021/01/29 12:33:26;;;;;;;22.47;8.70;;;4.30;99.90;;;;;;4995207;28;20204;-68
2021/01/29 12:35:56;;;;;;;21.33;9.03;;;4.30;99.90;;;;;;4998959;28;20208;-69
2021/01/29 12:38:30;;;;;;;19.13;8.67;;;4.30;99.90;;;;;;5046818;28;20279;-69
2021/01/29 12:41:09;;;;;;;23.43;9.23;;;4.40;99.90;;;;;;5054102;28;20198;-69
2021/01/29 12:43:41;;;;;;;21.30;9.60;;;4.40;99.90;;;;;;5014602;28;20226;-69
2021/01/29 12:46:13;;;;;;;20.67;8.93;;;4.30;99.90;;;;;;5038858;28;20224;-68
2021/01/29 12:48:59;;;;;;;24.77;9.07;;;4.30;99.90;;;;;;5015264;28;20580;-69
2021/01/29 12:51:33;;;;;;;21.80;9.93;;;4.30;99.90;;;;;;5034203;28;20183;-68
2021/01/29 12:54:06;;;;;;;26.70;10.73;;;4.30;99.90;;;;;;5034227;28;20535;-69
2021/01/29 12:57:03;;;;;;;23.47;9.83;;;4.20;99.90;;;;;;5033665;28;20676;-68
2021/01/29 12:59:36;;;;;;;23.20;10.07;;;4.20;99.90;;;;;;4955238;28;20220;-69
2021/01/29 13:02:15;;;;;;;29.23;12.03;;;4.20;99.90;;;;;;4955907;29;20258;-69
2021/01/29 13:04:47;;;;;;;23.93;10.30;;;4.50;99.90;;;;;;4917391;29;20202;-69
2021/01/29 13:07:17;;;;;;;25.47;9.63;;;4.20;99.90;;;;;;4916931;29;20676;-68
2021/01/29 13:10:09;;;;;;;21.90;9.57;;;4.20;99.90;;;;;;4917485;29;20206;-69
2021/01/29 13:12:48;;;;;;;29.43;10.73;;;4.20;99.90;;;;;;4861329;29;20204;-69
2021/01/29 13:15:23;;;;;;;24.33;10.27;;;4.30;99.90;;;;;;4889168;29;20231;-69
2021/01/29 13:18:00;;;;;;;21.73;9.23;;;4.20;99.90;;;;;;4898323;29;20304;-69
2021/01/29 13:20:29;;;;;;;25.33;10.50;;;4.30;99.90;;;;;;4898742;29;20207;-69
2021/01/29 13:23:18;;;;;;;27.80;10.70;;;4.30;99.90;;;;;;4879215;29;20268;-69
2021/01/29 13:25:56;;;;;;;29.33;11.50;;;4.30;99.90;;;;;;4879346;29;20232;-69
2021/01/29 13:28:23;;;;;;;29.53;11.87;;;4.40;99.90;;;;;;4879729;29;20232;-69
2021/01/29 13:30:49;;;;;;;31.67;12.13;;;4.50;99.90;;;;;;4879458;29;20211;-69
2021/01/29 13:33:19;;;;;;;30.50;11.70;;;4.40;99.90;;;;;;4901313;29;20287;-69
2021/01/29 13:35:49;;;;;;;28.17;11.63;;;4.50;99.90;;;;;;4925867;29;20197;-69
2021/01/29 13:38:28;;;;;;;30.23;12.27;;;4.40;99.90;;;;;;4964949;28;20205;-69
2021/01/29 13:41:08;;;;;;;29.00;11.00;;;4.40;99.90;;;;;;4935819;29;20243;-69
2021/01/29 13:43:35;;;;;;;33.40;11.47;;;4.40;99.90;;;;;;5022857;28;20558;-69
2021/01/29 13:46:06;;;;;;;35.47;12.87;;;4.40;99.90;;;;;;5052849;28;20229;-69
2021/01/29 13:48:34;;;;;;;42.50;15.37;;;4.30;99.90;;;;;;5013260;28;20203;-69
2021/01/29 13:51:19;;;;;;;34.97;13.77;;;4.30;99.90;;;;;;5013410;28;20207;-70
2021/01/29 13:53:46;;;;;;;34.67;13.60;;;4.20;99.90;;;;;;5013140;28;20606;-70
2021/01/29 13:56:37;;;;;;;35.43;13.53;;;4.20;99.90;;;;;;5013630;28;20293;-70
2021/01/29 13:59:10;;;;;;;35.40;13.90;;;4.00;99.90;;;;;;5013357;28;20549;-70
2021/01/29 14:01:42;;;;;;;35.43;13.57;;;4.00;99.90;;;;;;5013125;28;20214;-70
2021/01/29 14:04:14;;;;;;;33.57;13.00;;;3.80;99.90;;;;;;5013560;28;20210;-70
2021/01/29 14:06:41;;;;;;;32.33;13.03;;;3.80;99.90;;;;;;5013585;28;20641;-70
2021/01/29 14:09:13;;;;;;;31.00;12.63;;;3.70;99.90;;;;;;5012591;28;20211;-70
2021/01/29 14:11:52;;;;;;;36.27;13.60;;;3.60;99.90;;;;;;5028095;28;20225;-70
2021/01/29 14:14:28;;;;;;;32.90;12.90;;;3.60;99.90;;;;;;4993242;28;20798;-70
2021/01/29 14:17:03;;;;;;;32.17;12.77;;;3.50;99.90;;;;;;4993551;28;20208;-70
2021/01/29 14:19:43;;;;;;;45.53;16.97;;;3.50;99.90;;;;;;4993359;28;20199;-70